sensor_id;sensor_type;location;lat;lon;timestamp;pressure;altitude;pressure_sealevel;temperature;humidity
10539;BME280;5317;49.048;8.468;2022-09-09T00:01:30;112049.66;;;-142.21;100.00
10539;BME280;5317;49.048;8.468;2022-09-09T00:04:12;112049.66;;;-142.21;100.00
10539;BME280;5317;49.048;8.468;2022-09-09T00:06:46;112049.66;;;-142.21;100.00
10539;BME280;5317;49.048;8.468;2022-09-09T00:09:21;112049.66;;;-142.21;100.00
10539;BME280;5317;49.048;8.468;2022-09-09T00:11:53;112049.66;;;-142.21;100.00
10539;BME280;5317;49.048;8.468;2022-09-09T00:14:33;112049.66;;;-142.21;100.00
10539;BME280;5317;49.048;8.468;2022-09-09T00:17:09;112049.66;;;-142.21;100.00
10539;BME280;5317;49.048;8.468;2022-09-09T00:19:45;112049.66;;;-142.21;100.00
10539;BME280;5317;49.048;8.468;2022-09-09T00:22:18;112049.66;;;-142.21;100.00
10539;BME280;5317;49.048;8.468;2022-09-09T00:24:49;112049.66;;;-142.21;100.00
10539;BME280;5317;49.048;8.468;2022-09-09T00:27:29;112049.66;;;-142.21;100.00
10539;BME280;5317;49.048;8.468;2022-09-09T00:30:13;112049.66;;;-142.21;100.00
10539;BME280;5317;49.048;8.468;2022-09-09T00:32:43;112049.66;;;-142.21;100.00
10539;BME280;5317;49.048;8.468;2022-09-09T00:35:18;112049.66;;;-142.21;100.00
10539;BME280;5317;49.048;8.468;2022-09-09T00:37:53;112049.66;;;-142.21;99.75
10539;BME280;5317;49.048;8.468;2022-09-09T00:40:33;112049.66;;;-142.21;99.99
10539;BME280;5317;49.048;8.468;2022-09-09T00:43:25;112049.66;;;-142.21;98.98
10539;BME280;5317;49.048;8.468;2022-09-09T00:49:09;112049.66;;;-142.21;98.77
10539;BME280;5317;49.048;8.468;2022-09-09T00:51:56;112049.66;;;-142.21;100.00
10539;BME280;5317;49.048;8.468;2022-09-09T00:54:40;112049.66;;;-142.21;99.15
10539;BME280;5317;49.048;8.468;2022-09-09T00:57:23;112049.66;;;-142.21;99.31
10539;BME280;5317;49.048;8.468;2022-09-09T01:00:14;112049.66;;;-142.21;99.93
10539;BME280;5317;49.048;8.468;2022-09-09T01:03:02;112049.66;;;-142.21;98.67
10539;BME280;5317;49.048;8.468;2022-09-09T01:05:40;112049.66;;;-142.21;98.65
10539;BME280;5317;49.048;8.468;2022-09-09T01:08:28;112049.66;;;-142.21;98.81
10539;BME280;5317;49.048;8.468;2022-09-09T01:11:00;112049.66;;;-142.21;98.49
10539;BME280;5317;49.048;8.468;2022-09-09T01:13:32;112049.66;;;-142.21;98.46
10539;BME280;5317;49.048;8.468;2022-09-09T01:16:04;112049.66;;;-142.21;97.91
10539;BME280;5317;49.048;8.468;2022-09-09T01:18:40;112049.66;;;-142.21;97.01
10539;BME280;5317;49.048;8.468;2022-09-09T01:21:20;112049.66;;;-142.21;96.93
10539;BME280;5317;49.048;8.468;2022-09-09T01:24:16;112049.66;;;-142.21;95.77
10539;BME280;5317;49.048;8.468;2022-09-09T01:26:49;112049.66;;;-142.21;96.31
10539;BME280;5317;49.048;8.468;2022-09-09T01:29:21;112049.66;;;-142.21;95.69
10539;BME280;5317;49.048;8.468;2022-09-09T01:31:57;112049.66;;;-142.21;95.96
10539;BME280;5317;49.048;8.468;2022-09-09T01:34:30;112049.66;;;-142.21;93.72
10539;BME280;5317;49.048;8.468;2022-09-09T01:37:02;112049.66;;;-142.21;92.35
10539;BME280;5317;49.048;8.468;2022-09-09T01:39:32;112049.66;;;-142.21;92.75
10539;BME280;5317;49.048;8.468;2022-09-09T01:42:02;112049.66;;;-142.21;92.49
10539;BME280;5317;49.048;8.468;2022-09-09T01:44:31;112049.66;;;-142.21;93.43
10539;BME280;5317;49.048;8.468;2022-09-09T01:46:59;112049.66;;;-142.21;94.20
10539;BME280;5317;49.048;8.468;2022-09-09T01:49:26;112049.66;;;-142.21;95.27
10539;BME280;5317;49.048;8.468;2022-09-09T01:51:56;112049.66;;;-142.21;96.90
10539;BME280;5317;49.048;8.468;2022-09-09T01:54:29;112049.66;;;-142.21;97.80
10539;BME280;5317;49.048;8.468;2022-09-09T01:57:14;112049.66;;;-142.21;99.03
10539;BME280;5317;49.048;8.468;2022-09-09T01:59:57;112049.66;;;-142.21;99.52
10539;BME280;5317;49.048;8.468;2022-09-09T02:02:32;112049.66;;;-142.21;99.66
10539;BME280;5317;49.048;8.468;2022-09-09T02:05:19;112049.66;;;-142.21;100.00
10539;BME280;5317;49.048;8.468;2022-09-09T02:07:53;112049.66;;;-142.21;100.00
10539;BME280;5317;49.048;8.468;2022-09-09T02:10:30;112049.66;;;-142.21;100.00
10539;BME280;5317;49.048;8.468;2022-09-09T02:13:06;112049.66;;;-142.21;100.00
10539;BME280;5317;49.048;8.468;2022-09-09T02:15:44;112049.66;;;-142.21;100.00
10539;BME280;5317;49.048;8.468;2022-09-09T02:18:18;112049.66;;;-142.21;100.00
10539;BME280;5317;49.048;8.468;2022-09-09T02:20:49;112049.66;;;-142.21;100.00
10539;BME280;5317;49.048;8.468;2022-09-09T02:23:19;112049.66;;;-142.21;99.63
10539;BME280;5317;49.048;8.468;2022-09-09T02:25:48;112049.66;;;-142.21;100.00
10539;BME280;5317;49.048;8.468;2022-09-09T02:28:22;112049.66;;;-142.21;98.72
10539;BME280;5317;49.048;8.468;2022-09-09T02:30:52;112049.66;;;-142.21;98.85
10539;BME280;5317;49.048;8.468;2022-09-09T02:33:25;112049.66;;;-142.21;98.89
10539;BME280;5317;49.048;8.468;2022-09-09T02:35:56;112049.66;;;-142.21;97.72
10539;BME280;5317;49.048;8.468;2022-09-09T02:38:34;112049.66;;;-142.21;98.23
10539;BME280;5317;49.048;8.468;2022-09-09T02:41:03;112049.66;;;-142.21;98.35
10539;BME280;5317;49.048;8.468;2022-09-09T02:43:34;112049.66;;;-142.21;98.04
10539;BME280;5317;49.048;8.468;2022-09-09T02:46:20;112049.66;;;-142.21;98.49
10539;BME280;5317;49.048;8.468;2022-09-09T02:48:59;112049.66;;;-142.21;98.54
10539;BME280;5317;49.048;8.468;2022-09-09T02:51:40;112049.66;;;-142.21;98.72
10539;BME280;5317;49.048;8.468;2022-09-09T02:54:21;112049.66;;;-142.21;98.55
10539;BME280;5317;49.048;8.468;2022-09-09T02:56:53;112049.66;;;-142.21;99.18
10539;BME280;5317;49.048;8.468;2022-09-09T02:59:26;112049.66;;;-142.21;99.95
10539;BME280;5317;49.048;8.468;2022-09-09T03:01:53;112049.66;;;-142.21;98.96
10539;BME280;5317;49.048;8.468;2022-09-09T03:04:20;112049.66;;;-142.21;99.57
10539;BME280;5317;49.048;8.468;2022-09-09T03:06:48;112049.66;;;-142.21;100.00
10539;BME280;5317;49.048;8.468;2022-09-09T03:09:16;112049.66;;;-142.21;100.00
10539;BME280;5317;49.048;8.468;2022-09-09T03:11:43;112049.66;;;-142.21;100.00
10539;BME280;5317;49.048;8.468;2022-09-09T03:14:10;112049.66;;;-142.21;100.00
10539;BME280;5317;49.048;8.468;2022-09-09T03:16:39;112049.66;;;-142.21;100.00
10539;BME280;5317;49.048;8.468;2022-09-09T03:19:08;112049.66;;;-142.21;100.00
10539;BME280;5317;49.048;8.468;2022-09-09T03:21:35;112049.66;;;-142.21;100.00
10539;BME280;5317;49.048;8.468;2022-09-09T03:24:03;112049.66;;;-142.21;100.00
10539;BME280;5317;49.048;8.468;2022-09-09T03:26:31;112049.66;;;-142.21;100.00
10539;BME280;5317;49.048;8.468;2022-09-09T03:28:58;112049.66;;;-142.21;100.00
10539;BME280;5317;49.048;8.468;2022-09-09T03:31:26;112049.66;;;-142.21;100.00
10539;BME280;5317;49.048;8.468;2022-09-09T03:33:57;112049.66;;;-142.21;100.00
10539;BME280;5317;49.048;8.468;2022-09-09T03:36:25;112049.66;;;-142.21;100.00
10539;BME280;5317;49.048;8.468;2022-09-09T03:38:54;112049.66;;;-142.21;100.00
10539;BME280;5317;49.048;8.468;2022-09-09T03:41:21;112049.66;;;-142.21;100.00
10539;BME280;5317;49.048;8.468;2022-09-09T03:43:49;112049.66;;;-142.21;100.00
10539;BME280;5317;49.048;8.468;2022-09-09T03:46:17;112049.66;;;-142.21;100.00
10539;BME280;5317;49.048;8.468;2022-09-09T03:48:46;112049.66;;;-142.21;100.00
10539;BME280;5317;49.048;8.468;2022-09-09T03:51:15;112049.66;;;-142.21;100.00
10539;BME280;5317;49.048;8.468;2022-09-09T03:53:45;112049.66;;;-142.21;100.00
10539;BME280;5317;49.048;8.468;2022-09-09T03:56:13;112049.66;;;-142.21;100.00
10539;BME280;5317;49.048;8.468;2022-09-09T03:58:40;112049.66;;;-142.21;100.00
10539;BME280;5317;49.048;8.468;2022-09-09T04:01:10;112049.66;;;-142.21;100.00
10539;BME280;5317;49.048;8.468;2022-09-09T04:03:40;112049.66;;;-142.21;100.00
10539;BME280;5317;49.048;8.468;2022-09-09T04:06:10;112049.66;;;-142.21;100.00
10539;BME280;5317;49.048;8.468;2022-09-09T04:08:42;112049.66;;;-142.21;100.00
10539;BME280;5317;49.048;8.468;2022-09-09T04:11:09;112049.66;;;-142.21;100.00
10539;BME280;5317;49.048;8.468;2022-09-09T04:13:37;112049.66;;;-142.21;100.00
10539;BME280;5317;49.048;8.468;2022-09-09T04:16:06;112049.66;;;-142.21;100.00
10539;BME280;5317;49.048;8.468;2022-09-09T04:18:34;112049.66;;;-142.21;100.00
10539;BME280;5317;49.048;8.468;2022-09-09T04:21:01;112049.66;;;-142.21;100.00
10539;BME280;5317;49.048;8.468;2022-09-09T04:23:29;112049.66;;;-142.21;100.00
10539;BME280;5317;49.048;8.468;2022-09-09T04:25:59;112049.66;;;-142.21;100.00
10539;BME280;5317;49.048;8.468;2022-09-09T04:28:30;112049.66;;;-142.21;100.00
10539;BME280;5317;49.048;8.468;2022-09-09T04:31:04;112049.66;;;-142.21;100.00
10539;BME280;5317;49.048;8.468;2022-09-09T04:33:32;112049.66;;;-142.21;100.00
10539;BME280;5317;49.048;8.468;2022-09-09T04:35:59;112049.66;;;-142.21;100.00
10539;BME280;5317;49.048;8.468;2022-09-09T04:38:26;112049.66;;;-142.21;100.00
10539;BME280;5317;49.048;8.468;2022-09-09T04:40:54;112049.66;;;-142.21;100.00
10539;BME280;5317;49.048;8.468;2022-09-09T04:43:23;112049.66;;;-142.21;100.00
10539;BME280;5317;49.048;8.468;2022-09-09T04:45:56;112049.66;;;-142.21;100.00
10539;BME280;5317;49.048;8.468;2022-09-09T04:48:25;112049.66;;;-142.21;100.00
10539;BME280;5317;49.048;8.468;2022-09-09T04:50:57;112049.66;;;-142.21;100.00
10539;BME280;5317;49.048;8.468;2022-09-09T04:53:25;112049.66;;;-142.21;100.00
10539;BME280;5317;49.048;8.468;2022-09-09T04:55:53;112049.66;;;-142.21;100.00
10539;BME280;5317;49.048;8.468;2022-09-09T04:58:21;112049.66;;;-142.21;100.00
10539;BME280;5317;49.048;8.468;2022-09-09T05:00:49;112049.66;;;-142.21;100.00
10539;BME280;5317;49.048;8.468;2022-09-09T05:03:16;112049.66;;;-142.21;100.00
10539;BME280;5317;49.048;8.468;2022-09-09T05:05:43;112049.66;;;-142.21;100.00
10539;BME280;5317;49.048;8.468;2022-09-09T05:08:11;112049.66;;;-142.21;100.00
10539;BME280;5317;49.048;8.468;2022-09-09T05:10:39;112049.66;;;-142.21;100.00
10539;BME280;5317;49.048;8.468;2022-09-09T05:13:08;112049.66;;;-142.21;100.00
10539;BME280;5317;49.048;8.468;2022-09-09T05:15:36;112049.66;;;-142.21;100.00
10539;BME280;5317;49.048;8.468;2022-09-09T05:18:03;112049.66;;;-142.21;99.76
10539;BME280;5317;49.048;8.468;2022-09-09T05:20:31;112049.66;;;-142.21;99.69
10539;BME280;5317;49.048;8.468;2022-09-09T05:22:58;112049.66;;;-142.21;99.15
10539;BME280;5317;49.048;8.468;2022-09-09T05:25:25;112049.66;;;-142.21;99.57
10539;BME280;5317;49.048;8.468;2022-09-09T05:27:53;112049.66;;;-142.21;98.31
10539;BME280;5317;49.048;8.468;2022-09-09T05:30:21;112049.66;;;-142.21;98.01
10539;BME280;5317;49.048;8.468;2022-09-09T05:32:51;112049.66;;;-142.21;97.89
10539;BME280;5317;49.048;8.468;2022-09-09T05:35:19;112049.66;;;-142.21;97.43
10539;BME280;5317;49.048;8.468;2022-09-09T05:37:46;112049.66;;;-142.21;97.11
10539;BME280;5317;49.048;8.468;2022-09-09T05:40:14;112049.66;;;-142.21;97.63
10539;BME280;5317;49.048;8.468;2022-09-09T05:42:41;112049.66;;;-142.21;97.64
10539;BME280;5317;49.048;8.468;2022-09-09T05:45:09;112049.66;;;-142.21;97.34
10539;BME280;5317;49.048;8.468;2022-09-09T05:47:37;112049.66;;;-142.21;97.05
10539;BME280;5317;49.048;8.468;2022-09-09T05:50:06;112049.66;;;-142.21;96.87
10539;BME280;5317;49.048;8.468;2022-09-09T05:52:34;112049.66;;;-142.21;96.84
10539;BME280;5317;49.048;8.468;2022-09-09T05:55:01;112049.66;;;-142.21;97.83
10539;BME280;5317;49.048;8.468;2022-09-09T05:57:30;112049.66;;;-142.21;97.35
10539;BME280;5317;49.048;8.468;2022-09-09T05:59:57;112049.66;;;-142.21;96.37
10539;BME280;5317;49.048;8.468;2022-09-09T06:02:25;112049.66;;;-142.21;96.34
10539;BME280;5317;49.048;8.468;2022-09-09T06:04:55;112049.66;;;-142.21;96.34
10539;BME280;5317;49.048;8.468;2022-09-09T06:07:25;112049.66;;;-142.21;96.14
10539;BME280;5317;49.048;8.468;2022-09-09T06:09:52;112049.66;;;-142.21;94.79
10539;BME280;5317;49.048;8.468;2022-09-09T06:12:19;112049.66;;;-142.21;95.40
10539;BME280;5317;49.048;8.468;2022-09-09T06:14:47;112049.66;;;-142.21;95.19
10539;BME280;5317;49.048;8.468;2022-09-09T06:17:16;112049.66;;;-142.21;94.68
10539;BME280;5317;49.048;8.468;2022-09-09T06:23:28;112049.66;;;-142.21;92.97
10539;BME280;5317;49.048;8.468;2022-09-09T06:26:04;112049.66;;;-142.21;91.10
10539;BME280;5317;49.048;8.468;2022-09-09T06:28:32;112049.66;;;-142.21;90.55
10539;BME280;5317;49.048;8.468;2022-09-09T06:31:00;112049.66;;;-142.21;90.11
10539;BME280;5317;49.048;8.468;2022-09-09T06:33:33;112049.66;;;-142.21;89.94
10539;BME280;5317;49.048;8.468;2022-09-09T06:36:03;112049.66;;;-142.21;90.06
10539;BME280;5317;49.048;8.468;2022-09-09T06:38:32;112049.66;;;-142.21;90.53
10539;BME280;5317;49.048;8.468;2022-09-09T06:40:59;112049.66;;;-142.21;90.45
10539;BME280;5317;49.048;8.468;2022-09-09T06:43:28;112049.66;;;-142.21;90.17
10539;BME280;5317;49.048;8.468;2022-09-09T06:46:01;112049.66;;;-142.21;88.90
10539;BME280;5317;49.048;8.468;2022-09-09T06:48:29;112049.66;;;-142.21;89.25
10539;BME280;5317;49.048;8.468;2022-09-09T06:51:05;112049.66;;;-142.21;88.24
10539;BME280;5317;49.048;8.468;2022-09-09T06:53:36;112049.66;;;-142.21;87.41
10539;BME280;5317;49.048;8.468;2022-09-09T06:56:20;112049.66;;;-142.21;87.60
10539;BME280;5317;49.048;8.468;2022-09-09T06:58:50;112049.66;;;-142.21;87.65
10539;BME280;5317;49.048;8.468;2022-09-09T07:01:21;112049.66;;;-142.21;87.94
10539;BME280;5317;49.048;8.468;2022-09-09T07:03:51;112049.66;;;-142.21;88.44
10539;BME280;5317;49.048;8.468;2022-09-09T07:06:21;112049.66;;;-142.21;88.40
10539;BME280;5317;49.048;8.468;2022-09-09T07:08:53;112049.66;;;-142.21;88.07
10539;BME280;5317;49.048;8.468;2022-09-09T07:11:23;112049.66;;;-142.21;87.00
10539;BME280;5317;49.048;8.468;2022-09-09T07:13:51;112049.66;;;-142.21;86.83
10539;BME280;5317;49.048;8.468;2022-09-09T07:16:20;112049.66;;;-142.21;87.28
10539;BME280;5317;49.048;8.468;2022-09-09T07:18:48;112049.66;;;-142.21;86.21
10539;BME280;5317;49.048;8.468;2022-09-09T07:21:18;112049.66;;;-142.21;86.45
10539;BME280;5317;49.048;8.468;2022-09-09T07:23:46;112049.66;;;-142.21;86.74
10539;BME280;5317;49.048;8.468;2022-09-09T07:26:19;112049.66;;;-142.21;83.82
10539;BME280;5317;49.048;8.468;2022-09-09T07:28:48;112049.66;;;-142.21;85.41
10539;BME280;5317;49.048;8.468;2022-09-09T07:31:17;112049.66;;;-142.21;84.24
10539;BME280;5317;49.048;8.468;2022-09-09T07:33:46;112049.66;;;-142.21;84.61
10539;BME280;5317;49.048;8.468;2022-09-09T07:36:18;112049.66;;;-142.21;86.71
10539;BME280;5317;49.048;8.468;2022-09-09T07:38:50;112049.66;;;-142.21;87.31
10539;BME280;5317;49.048;8.468;2022-09-09T07:41:22;112049.66;;;-142.21;88.01
10539;BME280;5317;49.048;8.468;2022-09-09T07:43:50;112049.66;;;-142.21;87.02
10539;BME280;5317;49.048;8.468;2022-09-09T07:46:21;112049.66;;;-142.21;87.19
10539;BME280;5317;49.048;8.468;2022-09-09T07:48:51;112049.66;;;-142.21;88.56
10539;BME280;5317;49.048;8.468;2022-09-09T07:51:23;112049.66;;;-142.21;90.93
10539;BME280;5317;49.048;8.468;2022-09-09T07:53:54;112049.66;;;-142.21;88.41
10539;BME280;5317;49.048;8.468;2022-09-09T07:56:23;112049.66;;;-142.21;89.01
10539;BME280;5317;49.048;8.468;2022-09-09T07:58:53;112049.66;;;-142.21;88.75
10539;BME280;5317;49.048;8.468;2022-09-09T08:01:24;112049.66;;;-142.21;88.55
10539;BME280;5317;49.048;8.468;2022-09-09T08:03:57;112049.66;;;-142.21;89.11
10539;BME280;5317;49.048;8.468;2022-09-09T08:06:28;112049.66;;;-142.21;87.41
10539;BME280;5317;49.048;8.468;2022-09-09T08:08:56;112049.66;;;-142.21;86.15
10539;BME280;5317;49.048;8.468;2022-09-09T08:11:27;112049.66;;;-142.21;85.13
10539;BME280;5317;49.048;8.468;2022-09-09T08:13:56;112049.66;;;-142.21;83.88
10539;BME280;5317;49.048;8.468;2022-09-09T08:16:26;112049.66;;;-142.21;81.31
10539;BME280;5317;49.048;8.468;2022-09-09T08:18:56;112049.66;;;-142.21;83.89
10539;BME280;5317;49.048;8.468;2022-09-09T08:21:30;112049.66;;;-142.21;80.15
10539;BME280;5317;49.048;8.468;2022-09-09T08:24:01;112049.66;;;-142.21;78.50
10539;BME280;5317;49.048;8.468;2022-09-09T08:26:33;112049.66;;;-142.21;80.81
10539;BME280;5317;49.048;8.468;2022-09-09T08:29:03;112049.66;;;-142.21;77.66
10539;BME280;5317;49.048;8.468;2022-09-09T08:31:33;112049.66;;;-142.21;78.89
10539;BME280;5317;49.048;8.468;2022-09-09T08:34:01;112049.66;;;-142.21;78.99
10539;BME280;5317;49.048;8.468;2022-09-09T08:36:33;112049.66;;;-142.21;82.21
10539;BME280;5317;49.048;8.468;2022-09-09T08:39:02;112049.66;;;-142.21;84.07
10539;BME280;5317;49.048;8.468;2022-09-09T08:45:14;112049.66;;;-142.21;82.29
10539;BME280;5317;49.048;8.468;2022-09-09T08:48:01;112049.66;;;-142.21;82.69
10539;BME280;5317;49.048;8.468;2022-09-09T08:50:34;112049.66;;;-142.21;83.92
10539;BME280;5317;49.048;8.468;2022-09-09T08:53:11;112049.66;;;-142.21;83.97
10539;BME280;5317;49.048;8.468;2022-09-09T08:55:46;112049.66;;;-142.21;82.52
10539;BME280;5317;49.048;8.468;2022-09-09T08:58:19;112049.66;;;-142.21;80.80
10539;BME280;5317;49.048;8.468;2022-09-09T09:01:16;112049.66;;;-142.21;80.85
10539;BME280;5317;49.048;8.468;2022-09-09T09:03:57;112049.66;;;-142.21;77.59
10539;BME280;5317;49.048;8.468;2022-09-09T09:06:44;112049.66;;;-142.21;79.15
10539;BME280;5317;49.048;8.468;2022-09-09T09:09:26;112049.66;;;-142.21;79.78
10539;BME280;5317;49.048;8.468;2022-09-09T09:12:01;112049.66;;;-142.21;83.88
10539;BME280;5317;49.048;8.468;2022-09-09T09:14:34;112049.66;;;-142.21;84.58
10539;BME280;5317;49.048;8.468;2022-09-09T09:17:06;112049.66;;;-142.21;84.94
10539;BME280;5317;49.048;8.468;2022-09-09T09:19:40;112049.66;;;-142.21;84.88
10539;BME280;5317;49.048;8.468;2022-09-09T09:22:19;112049.66;;;-142.21;84.06
10539;BME280;5317;49.048;8.468;2022-09-09T09:24:53;112049.66;;;-142.21;84.32
10539;BME280;5317;49.048;8.468;2022-09-09T09:27:31;112049.66;;;-142.21;82.71
10539;BME280;5317;49.048;8.468;2022-09-09T09:30:13;112049.66;;;-142.21;82.74
10539;BME280;5317;49.048;8.468;2022-09-09T09:32:50;112049.66;;;-142.21;79.42
10539;BME280;5317;49.048;8.468;2022-09-09T09:35:19;112049.66;;;-142.21;80.81
10539;BME280;5317;49.048;8.468;2022-09-09T09:37:47;112049.66;;;-142.21;77.08
10539;BME280;5317;49.048;8.468;2022-09-09T09:40:18;112049.66;;;-142.21;73.34
10539;BME280;5317;49.048;8.468;2022-09-09T09:42:52;112049.66;;;-142.21;72.05
10539;BME280;5317;49.048;8.468;2022-09-09T09:45:33;112049.66;;;-142.21;69.01
10539;BME280;5317;49.048;8.468;2022-09-09T09:48:03;112049.66;;;-142.21;67.03
10539;BME280;5317;49.048;8.468;2022-09-09T09:50:32;112049.66;;;-142.21;60.27
10539;BME280;5317;49.048;8.468;2022-09-09T09:53:04;112049.66;;;-142.21;63.53
10539;BME280;5317;49.048;8.468;2022-09-09T09:55:35;112049.66;;;-142.21;63.36
10539;BME280;5317;49.048;8.468;2022-09-09T09:58:05;112049.66;;;-142.21;60.55
10539;BME280;5317;49.048;8.468;2022-09-09T10:00:34;112049.66;;;-142.21;62.68
10539;BME280;5317;49.048;8.468;2022-09-09T10:03:14;112049.66;;;-142.21;58.66
10539;BME280;5317;49.048;8.468;2022-09-09T10:05:47;112049.66;;;-142.21;59.65
10539;BME280;5317;49.048;8.468;2022-09-09T10:08:16;112049.66;;;-142.21;59.72
10539;BME280;5317;49.048;8.468;2022-09-09T10:11:04;112049.66;;;-142.21;59.29
10539;BME280;5317;49.048;8.468;2022-09-09T10:13:49;112049.66;;;-142.21;58.63
10539;BME280;5317;49.048;8.468;2022-09-09T10:16:40;112049.66;;;-142.21;57.77
10539;BME280;5317;49.048;8.468;2022-09-09T10:19:16;112049.66;;;-142.21;59.92
10539;BME280;5317;49.048;8.468;2022-09-09T10:22:09;112049.66;;;-142.21;61.08
10539;BME280;5317;49.048;8.468;2022-09-09T10:25:22;112049.66;;;-142.21;56.61
10539;BME280;5317;49.048;8.468;2022-09-09T10:28:25;112049.66;;;-142.21;58.31
10539;BME280;5317;49.048;8.468;2022-09-09T10:31:11;112049.66;;;-142.21;54.67
10539;BME280;5317;49.048;8.468;2022-09-09T10:33:52;112049.66;;;-142.21;55.13
10539;BME280;5317;49.048;8.468;2022-09-09T10:36:26;112049.66;;;-142.21;54.33
10539;BME280;5317;49.048;8.468;2022-09-09T10:39:00;112049.66;;;-142.21;54.31
10539;BME280;5317;49.048;8.468;2022-09-09T10:41:44;112049.66;;;-142.21;53.31
10539;BME280;5317;49.048;8.468;2022-09-09T10:44:55;112049.66;;;-142.21;53.40
10539;BME280;5317;49.048;8.468;2022-09-09T10:48:09;112049.66;;;-142.21;55.31
10539;BME280;5317;49.048;8.468;2022-09-09T10:50:55;112049.66;;;-142.21;56.52
10539;BME280;5317;49.048;8.468;2022-09-09T10:53:37;112049.66;;;-142.21;54.81
10539;BME280;5317;49.048;8.468;2022-09-09T10:56:13;112049.66;;;-142.21;54.33
10539;BME280;5317;49.048;8.468;2022-09-09T10:58:48;112049.66;;;-142.21;54.83
10539;BME280;5317;49.048;8.468;2022-09-09T11:01:24;112049.66;;;-142.21;53.26
10539;BME280;5317;49.048;8.468;2022-09-09T11:03:59;112049.66;;;-142.21;51.63
10539;BME280;5317;49.048;8.468;2022-09-09T11:06:37;112049.66;;;-142.21;50.10
10539;BME280;5317;49.048;8.468;2022-09-09T11:09:15;112049.66;;;-142.21;49.18
10539;BME280;5317;49.048;8.468;2022-09-09T11:11:53;112049.66;;;-142.21;47.69
10539;BME280;5317;49.048;8.468;2022-09-09T11:14:29;112049.66;;;-142.21;49.55
10539;BME280;5317;49.048;8.468;2022-09-09T11:17:01;112049.66;;;-142.21;49.06
10539;BME280;5317;49.048;8.468;2022-09-09T11:19:36;112049.66;;;-142.21;48.55
10539;BME280;5317;49.048;8.468;2022-09-09T11:22:16;112049.66;;;-142.21;48.31
10539;BME280;5317;49.048;8.468;2022-09-09T11:24:50;112049.66;;;-142.21;48.76
10539;BME280;5317;49.048;8.468;2022-09-09T11:27:25;112049.66;;;-142.21;49.14
10539;BME280;5317;49.048;8.468;2022-09-09T11:30:18;112049.66;;;-142.21;50.37
10539;BME280;5317;49.048;8.468;2022-09-09T11:33:41;112049.66;;;-142.21;48.26
10539;BME280;5317;49.048;8.468;2022-09-09T11:36:43;112049.66;;;-142.21;47.83
10539;BME280;5317;49.048;8.468;2022-09-09T11:39:48;112049.66;;;-142.21;47.61
10539;BME280;5317;49.048;8.468;2022-09-09T11:42:23;112049.66;;;-142.21;49.25
10539;BME280;5317;49.048;8.468;2022-09-09T11:44:52;112049.66;;;-142.21;48.59
10539;BME280;5317;49.048;8.468;2022-09-09T11:47:24;112049.66;;;-142.21;49.45
10539;BME280;5317;49.048;8.468;2022-09-09T11:50:06;112049.66;;;-142.21;49.30
10539;BME280;5317;49.048;8.468;2022-09-09T11:52:38;112049.66;;;-142.21;48.90
10539;BME280;5317;49.048;8.468;2022-09-09T11:55:25;112049.66;;;-142.21;48.85
10539;BME280;5317;49.048;8.468;2022-09-09T11:57:59;112049.66;;;-142.21;47.57
10539;BME280;5317;49.048;8.468;2022-09-09T12:00:36;112049.66;;;-142.21;47.50
10539;BME280;5317;49.048;8.468;2022-09-09T12:03:05;112049.66;;;-142.21;46.90
10539;BME280;5317;49.048;8.468;2022-09-09T12:05:42;112049.66;;;-142.21;50.10
10539;BME280;5317;49.048;8.468;2022-09-09T12:08:17;112049.66;;;-142.21;48.47
10539;BME280;5317;49.048;8.468;2022-09-09T12:10:57;112049.66;;;-142.21;46.96
10539;BME280;5317;49.048;8.468;2022-09-09T12:13:27;112049.66;;;-142.21;48.74
10539;BME280;5317;49.048;8.468;2022-09-09T12:15:56;112049.66;;;-142.21;47.85
10539;BME280;5317;49.048;8.468;2022-09-09T12:18:31;112049.66;;;-142.21;46.17
10539;BME280;5317;49.048;8.468;2022-09-09T12:21:06;112049.66;;;-142.21;45.99
10539;BME280;5317;49.048;8.468;2022-09-09T12:23:45;112049.66;;;-142.21;45.92
10539;BME280;5317;49.048;8.468;2022-09-09T12:26:32;112049.66;;;-142.21;42.67
10539;BME280;5317;49.048;8.468;2022-09-09T12:29:24;112049.66;;;-142.21;44.13
10539;BME280;5317;49.048;8.468;2022-09-09T12:32:01;112049.66;;;-142.21;44.63
10539;BME280;5317;49.048;8.468;2022-09-09T12:34:39;112049.66;;;-142.21;45.91
10539;BME280;5317;49.048;8.468;2022-09-09T12:37:17;112049.66;;;-142.21;46.63
10539;BME280;5317;49.048;8.468;2022-09-09T12:39:53;112049.66;;;-142.21;45.88
10539;BME280;5317;49.048;8.468;2022-09-09T12:42:26;112049.66;;;-142.21;44.90
10539;BME280;5317;49.048;8.468;2022-09-09T12:44:56;112049.66;;;-142.21;45.27
10539;BME280;5317;49.048;8.468;2022-09-09T12:47:33;112049.66;;;-142.21;46.64
10539;BME280;5317;49.048;8.468;2022-09-09T12:50:05;112049.66;;;-142.21;47.60
10539;BME280;5317;49.048;8.468;2022-09-09T12:52:45;112049.66;;;-142.21;49.89
10539;BME280;5317;49.048;8.468;2022-09-09T12:55:19;112049.66;;;-142.21;52.39
10539;BME280;5317;49.048;8.468;2022-09-09T12:57:49;112049.66;;;-142.21;59.04
10539;BME280;5317;49.048;8.468;2022-09-09T13:00:20;112049.66;;;-142.21;61.67
10539;BME280;5317;49.048;8.468;2022-09-09T13:02:52;112049.66;;;-142.21;61.20
10539;BME280;5317;49.048;8.468;2022-09-09T13:05:24;112049.66;;;-142.21;60.66
10539;BME280;5317;49.048;8.468;2022-09-09T13:07:52;112049.66;;;-142.21;58.51
10539;BME280;5317;49.048;8.468;2022-09-09T13:10:48;112049.66;;;-142.21;61.04
10539;BME280;5317;49.048;8.468;2022-09-09T13:13:23;112049.66;;;-142.21;54.23
10539;BME280;5317;49.048;8.468;2022-09-09T13:15:56;112049.66;;;-142.21;57.68
10539;BME280;5317;49.048;8.468;2022-09-09T13:18:27;112049.66;;;-142.21;67.95
10539;BME280;5317;49.048;8.468;2022-09-09T13:20:56;112049.66;;;-142.21;68.16
10539;BME280;5317;49.048;8.468;2022-09-09T13:23:29;112049.66;;;-142.21;73.50